Cleveland, OH (44122)

10:12 AM EDT on May 04, 2015 (GMT -0400)
PEPPER PIKE OHIO | | Change Station
CLOSE
Current Station
Personal Weather Station
Location: Pepper Pike, OH
Elevation: 1129 ft
Nearby Weather Stations

Elev 1129 ft 41.47 °N, 81.47 °W | Updated 10 seconds ago

Partly Cloudy
Partly Cloudy
71.6 °F
Feels Like 77 °F
N
5.0
Wind Variable Wind from North

Today
High -- | Low -- °F
--% Chance of Precip.
Yesterday
High -- | Low -- °F
Precip. -- in
6:19 AM 8:26 PM
Full, 100% visible
Pressure 30.12 in
Visibility 15.0 miles
Clouds Scattered Clouds 10000 ft
Scattered Clouds 20000 ft
Heat Index 77 °F
Dew Point 47 °F
Humidity 41%
Rainfall 0.00 in
Snow Depth Not available.
UV 4 out of 12
Pollen 11.80 out of 12
Air Quality Not available.
Flu Activity Regional
METAR KCGF 041345Z 22012KT 15SM SCT100 SCT200 23/10 A3012

More Conditions Fewer Conditions

Pressure 30.12 in
Visibility 15.0 miles
Clouds Scattered Clouds 10000 ft
Scattered Clouds 20000 ft
Heat Index 77 °F
Dew Point 47 °F
Humidity 41%
Rainfall 0.00 in
Snow Depth Not available.
UV 4 out of 12
Pollen 11.80 out of 12
Air Quality Not available.
Flu Activity Regional
METAR KCGF 041345Z 22012KT 15SM SCT100 SCT200 23/10 A3012

More Conditions Fewer Conditions

Nepal has a long way to go to dig out and rebuild from a devastating earthquake. We have teamed up with several charities and organizations to make contributing to the relief effort as easy as possible.
How you can help: Portlight Strategies | Red Cross

10-Day Weather Forecast

Almanac

Astronomy

May. 04, 2015 Rise Set
Actual Time
Civil Twilight
Nautical Twilight
Astronomical Twilight
Moon
Length of Visible Light
Length of Day
Tomorrow will be .
, % of the Moon is Illuminated

Today's Extremes

State Highs State Lows

Community

WunderPhotos

Upload Photos

1,818,619 photos uploaded!

WunderBlogs® & News

Nearby

Air Quality

  Air Quality AQ Index Pollutant
Not available.

Snow Depth

Station Depth Elevation

Earthquake Activity

City Distance Mag. Time & Date
Minimum magnitude displayed is 2.5.

Coastal Water Temperatures

Place Temperature

Stations

Nearby Weather Stations

Station Location Temp. Windchill Dew Point Humidity Wind Precip. Elev Updated Type